sensor_id;sensor_type;location;lat;lon;timestamp;temperature;humidity
74416;SHT31;62850;42.428;25.618;2023-11-21T00:02:12;8.58;62.98
74416;SHT31;62850;42.428;25.618;2023-11-21T00:04:38;8.65;63.09
74416;SHT31;62850;42.428;25.618;2023-11-21T00:07:03;8.73;63.12
74416;SHT31;62850;42.428;25.618;2023-11-21T00:09:29;8.68;63.00
74416;SHT31;62850;42.428;25.618;2023-11-21T00:11:54;8.72;62.80
74416;SHT31;62850;42.428;25.618;2023-11-21T00:14:20;8.76;62.64
74416;SHT31;62850;42.428;25.618;2023-11-21T00:16:45;8.68;62.71
74416;SHT31;62850;42.428;25.618;2023-11-21T00:19:11;8.66;62.88
74416;SHT31;62850;42.428;25.618;2023-11-21T00:21:37;8.68;62.68
74416;SHT31;62850;42.428;25.618;2023-11-21T00:24:03;8.69;62.76
74416;SHT31;62850;42.428;25.618;2023-11-21T00:26:28;8.66;62.79
74416;SHT31;62850;42.428;25.618;2023-11-21T00:28:56;8.68;62.83
74416;SHT31;62850;42.428;25.618;2023-11-21T00:31:22;8.69;62.76
74416;SHT31;62850;42.428;25.618;2023-11-21T00:33:47;8.68;62.64
74416;SHT31;62850;42.428;25.618;2023-11-21T00:36:13;8.70;62.68
74416;SHT31;62850;42.428;25.618;2023-11-21T00:38:38;8.69;62.85
74416;SHT31;62850;42.428;25.618;2023-11-21T00:41:06;8.73;62.55
74416;SHT31;62850;42.428;25.618;2023-11-21T00:43:31;8.70;62.68
74416;SHT31;62850;42.428;25.618;2023-11-21T00:45:59;8.70;62.90
74416;SHT31;62850;42.428;25.618;2023-11-21T00:48:24;8.68;62.95
74416;SHT31;62850;42.428;25.618;2023-11-21T00:50:50;8.68;62.94
74416;SHT31;62850;42.428;25.618;2023-11-21T00:53:15;8.63;63.27
74416;SHT31;62850;42.428;25.618;2023-11-21T00:55:41;8.63;63.23
74416;SHT31;62850;42.428;25.618;2023-11-21T00:58:07;8.60;63.87
74416;SHT31;62850;42.428;25.618;2023-11-21T01:00:35;8.55;63.59
74416;SHT31;62850;42.428;25.618;2023-11-21T01:03:00;8.53;63.51
74416;SHT31;62850;42.428;25.618;2023-11-21T01:05:26;8.48;63.85
74416;SHT31;62850;42.428;25.618;2023-11-21T01:07:52;8.53;63.78
74416;SHT31;62850;42.428;25.618;2023-11-21T01:10:18;8.51;64.13
74416;SHT31;62850;42.428;25.618;2023-11-21T01:12:43;8.44;64.31
74416;SHT31;62850;42.428;25.618;2023-11-21T01:15:09;8.46;64.12
74416;SHT31;62850;42.428;25.618;2023-11-21T01:17:37;8.42;64.31
74416;SHT31;62850;42.428;25.618;2023-11-21T01:20:04;8.39;64.41
74416;SHT31;62850;42.428;25.618;2023-11-21T01:22:36;8.25;64.52
74416;SHT31;62850;42.428;25.618;2023-11-21T01:25:01;8.21;65.00
74416;SHT31;62850;42.428;25.618;2023-11-21T01:27:29;8.17;65.37
74416;SHT31;62850;42.428;25.618;2023-11-21T01:29:55;8.10;65.38
74416;SHT31;62850;42.428;25.618;2023-11-21T01:32:20;8.07;65.50
74416;SHT31;62850;42.428;25.618;2023-11-21T01:34:47;8.04;65.52
74416;SHT31;62850;42.428;25.618;2023-11-21T01:37:13;7.98;66.26
74416;SHT31;62850;42.428;25.618;2023-11-21T01:39:39;7.98;66.03
74416;SHT31;62850;42.428;25.618;2023-11-21T01:42:05;7.95;66.20
74416;SHT31;62850;42.428;25.618;2023-11-21T01:44:31;7.93;66.06
74416;SHT31;62850;42.428;25.618;2023-11-21T01:46:57;7.83;66.48
74416;SHT31;62850;42.428;25.618;2023-11-21T01:49:23;7.80;66.65
74416;SHT31;62850;42.428;25.618;2023-11-21T01:51:49;7.63;67.16
74416;SHT31;62850;42.428;25.618;2023-11-21T01:54:16;7.58;67.39
74416;SHT31;62850;42.428;25.618;2023-11-21T01:56:45;7.63;67.10
74416;SHT31;62850;42.428;25.618;2023-11-21T01:59:13;7.63;67.21
74416;SHT31;62850;42.428;25.618;2023-11-21T02:01:39;7.63;67.38
74416;SHT31;62850;42.428;25.618;2023-11-21T02:04:06;7.58;67.59
74416;SHT31;62850;42.428;25.618;2023-11-21T02:06:33;7.49;67.98
74416;SHT31;62850;42.428;25.618;2023-11-21T02:08:59;7.39;68.02
74416;SHT31;62850;42.428;25.618;2023-11-21T02:11:25;7.43;67.81
74416;SHT31;62850;42.428;25.618;2023-11-21T02:13:51;7.36;67.74
74416;SHT31;62850;42.428;25.618;2023-11-21T02:16:19;7.26;68.18
74416;SHT31;62850;42.428;25.618;2023-11-21T02:18:47;7.18;68.40
74416;SHT31;62850;42.428;25.618;2023-11-21T02:21:14;7.12;68.78
74416;SHT31;62850;42.428;25.618;2023-11-21T02:23:39;7.12;68.74
74416;SHT31;62850;42.428;25.618;2023-11-21T02:26:10;7.16;68.82
74416;SHT31;62850;42.428;25.618;2023-11-21T02:28:36;7.08;69.32
74416;SHT31;62850;42.428;25.618;2023-11-21T02:31:01;7.02;68.97
74416;SHT31;62850;42.428;25.618;2023-11-21T02:33:29;6.91;69.35
74416;SHT31;62850;42.428;25.618;2023-11-21T02:35:55;6.83;69.60
74416;SHT31;62850;42.428;25.618;2023-11-21T02:38:21;6.83;69.64
74416;SHT31;62850;42.428;25.618;2023-11-21T02:40:47;6.70;69.92
74416;SHT31;62850;42.428;25.618;2023-11-21T02:43:13;6.66;70.27
74416;SHT31;62850;42.428;25.618;2023-11-21T02:45:38;6.66;70.68
74416;SHT31;62850;42.428;25.618;2023-11-21T02:48:04;6.69;70.53
74416;SHT31;62850;42.428;25.618;2023-11-21T02:50:29;6.61;70.39
74416;SHT31;62850;42.428;25.618;2023-11-21T02:52:55;6.70;70.42
74416;SHT31;62850;42.428;25.618;2023-11-21T02:55:23;6.70;70.31
74416;SHT31;62850;42.428;25.618;2023-11-21T02:57:50;6.74;70.23
74416;SHT31;62850;42.428;25.618;2023-11-21T03:00:16;6.73;70.11
74416;SHT31;62850;42.428;25.618;2023-11-21T03:02:42;6.80;70.03
74416;SHT31;62850;42.428;25.618;2023-11-21T03:05:08;6.77;70.00
74416;SHT31;62850;42.428;25.618;2023-11-21T03:07:34;6.74;69.92
74416;SHT31;62850;42.428;25.618;2023-11-21T03:10:00;6.73;70.27
74416;SHT31;62850;42.428;25.618;2023-11-21T03:12:28;6.79;69.86
74416;SHT31;62850;42.428;25.618;2023-11-21T03:14:53;6.80;69.80
74416;SHT31;62850;42.428;25.618;2023-11-21T03:17:19;6.79;69.87
74416;SHT31;62850;42.428;25.618;2023-11-21T03:19:44;6.77;69.91
74416;SHT31;62850;42.428;25.618;2023-11-21T03:22:10;6.81;70.05
74416;SHT31;62850;42.428;25.618;2023-11-21T03:24:37;6.83;69.90
74416;SHT31;62850;42.428;25.618;2023-11-21T03:27:04;6.79;70.38
74416;SHT31;62850;42.428;25.618;2023-11-21T03:29:29;6.80;69.93
74416;SHT31;62850;42.428;25.618;2023-11-21T03:31:55;6.83;70.00
74416;SHT31;62850;42.428;25.618;2023-11-21T03:34:26;6.88;69.80
74416;SHT31;62850;42.428;25.618;2023-11-21T03:36:52;6.98;69.65
74416;SHT31;62850;42.428;25.618;2023-11-21T03:39:19;7.07;69.30
74416;SHT31;62850;42.428;25.618;2023-11-21T03:41:45;7.02;69.43
74416;SHT31;62850;42.428;25.618;2023-11-21T03:44:11;7.11;69.23
74416;SHT31;62850;42.428;25.618;2023-11-21T03:46:36;7.18;69.04
74416;SHT31;62850;42.428;25.618;2023-11-21T03:49:02;7.15;69.18
74416;SHT31;62850;42.428;25.618;2023-11-21T03:51:28;7.14;69.41
74416;SHT31;62850;42.428;25.618;2023-11-21T03:53:53;7.14;69.30
74416;SHT31;62850;42.428;25.618;2023-11-21T03:56:19;7.11;69.28
74416;SHT31;62850;42.428;25.618;2023-11-21T03:58:47;7.12;69.35
74416;SHT31;62850;42.428;25.618;2023-11-21T04:01:20;7.08;69.45
74416;SHT31;62850;42.428;25.618;2023-11-21T04:03:47;6.98;69.71
74416;SHT31;62850;42.428;25.618;2023-11-21T04:06:12;7.04;69.59
74416;SHT31;62850;42.428;25.618;2023-11-21T04:08:38;7.04;69.62
74416;SHT31;62850;42.428;25.618;2023-11-21T04:11:03;6.95;69.95
74416;SHT31;62850;42.428;25.618;2023-11-21T04:13:29;6.91;69.83
74416;SHT31;62850;42.428;25.618;2023-11-21T04:15:56;6.95;69.70
74416;SHT31;62850;42.428;25.618;2023-11-21T04:18:21;6.85;70.23
74416;SHT31;62850;42.428;25.618;2023-11-21T04:20:48;6.77;69.93
74416;SHT31;62850;42.428;25.618;2023-11-21T04:23:14;6.67;70.02
74416;SHT31;62850;42.428;25.618;2023-11-21T04:25:40;6.64;69.94
74416;SHT31;62850;42.428;25.618;2023-11-21T04:28:06;6.57;70.34
74416;SHT31;62850;42.428;25.618;2023-11-21T04:30:31;6.56;70.32
74416;SHT31;62850;42.428;25.618;2023-11-21T04:32:58;6.60;70.45
74416;SHT31;62850;42.428;25.618;2023-11-21T04:35:23;6.64;70.70
74416;SHT31;62850;42.428;25.618;2023-11-21T04:37:49;6.73;70.44
74416;SHT31;62850;42.428;25.618;2023-11-21T04:40:16;6.69;70.57
74416;SHT31;62850;42.428;25.618;2023-11-21T04:42:42;6.73;70.38
74416;SHT31;62850;42.428;25.618;2023-11-21T04:45:08;6.69;70.49
74416;SHT31;62850;42.428;25.618;2023-11-21T04:47:35;6.64;70.33
74416;SHT31;62850;42.428;25.618;2023-11-21T04:50:01;6.61;70.54
74416;SHT31;62850;42.428;25.618;2023-11-21T04:52:26;6.66;70.30
74416;SHT31;62850;42.428;25.618;2023-11-21T04:54:52;6.60;70.90
74416;SHT31;62850;42.428;25.618;2023-11-21T04:57:20;6.63;70.68
74416;SHT31;62850;42.428;25.618;2023-11-21T04:59:45;6.61;70.53
74416;SHT31;62850;42.428;25.618;2023-11-21T05:02:11;6.69;70.30
74416;SHT31;62850;42.428;25.618;2023-11-21T05:04:37;6.73;70.34
74416;SHT31;62850;42.428;25.618;2023-11-21T05:07:03;6.76;70.47
74416;SHT31;62850;42.428;25.618;2023-11-21T05:09:28;6.70;70.65
74416;SHT31;62850;42.428;25.618;2023-11-21T05:11:57;6.74;70.55
74416;SHT31;62850;42.428;25.618;2023-11-21T05:14:22;6.76;70.50
74416;SHT31;62850;42.428;25.618;2023-11-21T05:16:48;6.81;70.65
74416;SHT31;62850;42.428;25.618;2023-11-21T05:19:16;6.90;70.53
74416;SHT31;62850;42.428;25.618;2023-11-21T05:21:41;6.94;70.42
74416;SHT31;62850;42.428;25.618;2023-11-21T05:24:07;6.95;70.38
74416;SHT31;62850;42.428;25.618;2023-11-21T05:26:32;7.04;70.14
74416;SHT31;62850;42.428;25.618;2023-11-21T05:28:58;7.14;70.02
74416;SHT31;62850;42.428;25.618;2023-11-21T05:31:23;7.16;69.97
74416;SHT31;62850;42.428;25.618;2023-11-21T05:33:49;7.22;69.97
74416;SHT31;62850;42.428;25.618;2023-11-21T05:36:14;7.21;69.97
74416;SHT31;62850;42.428;25.618;2023-11-21T05:38:40;7.25;69.76
74416;SHT31;62850;42.428;25.618;2023-11-21T05:41:06;7.31;69.51
74416;SHT31;62850;42.428;25.618;2023-11-21T05:43:33;7.33;69.36
74416;SHT31;62850;42.428;25.618;2023-11-21T05:46:00;7.25;69.33
74416;SHT31;62850;42.428;25.618;2023-11-21T05:48:26;7.29;69.22
74416;SHT31;62850;42.428;25.618;2023-11-21T05:50:52;7.36;69.24
74416;SHT31;62850;42.428;25.618;2023-11-21T05:53:18;7.49;69.12
74416;SHT31;62850;42.428;25.618;2023-11-21T05:55:43;7.58;69.00
74416;SHT31;62850;42.428;25.618;2023-11-21T05:58:09;7.65;68.90
74416;SHT31;62850;42.428;25.618;2023-11-21T06:00:34;7.66;68.43
74416;SHT31;62850;42.428;25.618;2023-11-21T06:03:00;7.71;68.67
74416;SHT31;62850;42.428;25.618;2023-11-21T06:05:26;7.73;68.70
74416;SHT31;62850;42.428;25.618;2023-11-21T06:07:53;7.79;68.43
74416;SHT31;62850;42.428;25.618;2023-11-21T06:10:21;7.81;68.53
74416;SHT31;62850;42.428;25.618;2023-11-21T06:12:49;7.74;68.94
74416;SHT31;62850;42.428;25.618;2023-11-21T06:15:14;7.70;69.10
74416;SHT31;62850;42.428;25.618;2023-11-21T06:17:41;7.71;68.75
74416;SHT31;62850;42.428;25.618;2023-11-21T06:20:09;7.76;68.48
74416;SHT31;62850;42.428;25.618;2023-11-21T06:22:45;7.71;68.55
74416;SHT31;62850;42.428;25.618;2023-11-21T06:25:12;7.70;68.58
74416;SHT31;62850;42.428;25.618;2023-11-21T06:27:46;7.65;68.62
74416;SHT31;62850;42.428;25.618;2023-11-21T06:30:13;7.60;68.21
74416;SHT31;62850;42.428;25.618;2023-11-21T06:32:39;7.60;67.81
74416;SHT31;62850;42.428;25.618;2023-11-21T06:35:06;7.60;68.05
74416;SHT31;62850;42.428;25.618;2023-11-21T06:37:32;7.69;67.91
74416;SHT31;62850;42.428;25.618;2023-11-21T06:39:59;7.73;67.79
74416;SHT31;62850;42.428;25.618;2023-11-21T06:42:25;7.76;67.79
74416;SHT31;62850;42.428;25.618;2023-11-21T06:44:51;7.74;67.94
74416;SHT31;62850;42.428;25.618;2023-11-21T06:47:20;7.80;67.61
74416;SHT31;62850;42.428;25.618;2023-11-21T06:49:45;7.77;67.82
74416;SHT31;62850;42.428;25.618;2023-11-21T06:52:13;7.84;67.58
74416;SHT31;62850;42.428;25.618;2023-11-21T06:54:38;7.90;67.32
74416;SHT31;62850;42.428;25.618;2023-11-21T06:57:04;7.98;67.26
74416;SHT31;62850;42.428;25.618;2023-11-21T06:59:29;8.01;67.37
74416;SHT31;62850;42.428;25.618;2023-11-21T07:01:55;8.10;66.99
74416;SHT31;62850;42.428;25.618;2023-11-21T07:04:20;8.25;65.97
74416;SHT31;62850;42.428;25.618;2023-11-21T07:06:46;8.32;65.96
74416;SHT31;62850;42.428;25.618;2023-11-21T07:09:11;8.46;64.55
74416;SHT31;62850;42.428;25.618;2023-11-21T07:11:38;8.62;63.95
74416;SHT31;62850;42.428;25.618;2023-11-21T07:14:04;8.75;63.27
74416;SHT31;62850;42.428;25.618;2023-11-21T07:16:37;8.84;63.46
74416;SHT31;62850;42.428;25.618;2023-11-21T07:19:06;8.96;62.63
74416;SHT31;62850;42.428;25.618;2023-11-21T07:21:35;9.03;62.12
74416;SHT31;62850;42.428;25.618;2023-11-21T07:24:04;9.01;62.78
74416;SHT31;62850;42.428;25.618;2023-11-21T07:26:30;9.13;62.50
74416;SHT31;62850;42.428;25.618;2023-11-21T07:28:55;9.26;62.51
74416;SHT31;62850;42.428;25.618;2023-11-21T07:31:22;9.34;62.51
74416;SHT31;62850;42.428;25.618;2023-11-21T07:33:47;9.44;62.27
74416;SHT31;62850;42.428;25.618;2023-11-21T07:36:14;9.52;62.14
74416;SHT31;62850;42.428;25.618;2023-11-21T07:38:39;9.59;61.82
74416;SHT31;62850;42.428;25.618;2023-11-21T07:41:05;9.65;61.63
74416;SHT31;62850;42.428;25.618;2023-11-21T07:43:33;9.68;61.74
74416;SHT31;62850;42.428;25.618;2023-11-21T07:46:03;9.77;61.22
74416;SHT31;62850;42.428;25.618;2023-11-21T07:48:30;9.78;60.81
74416;SHT31;62850;42.428;25.618;2023-11-21T07:50:57;9.78;60.64
74416;SHT31;62850;42.428;25.618;2023-11-21T07:53:24;9.82;60.37
74416;SHT31;62850;42.428;25.618;2023-11-21T07:55:51;9.86;59.77
74416;SHT31;62850;42.428;25.618;2023-11-21T07:58:17;9.98;59.86
74416;SHT31;62850;42.428;25.618;2023-11-21T08:00:43;10.02;59.58
74416;SHT31;62850;42.428;25.618;2023-11-21T08:03:09;10.05;59.77
74416;SHT31;62850;42.428;25.618;2023-11-21T08:05:34;10.10;60.02
74416;SHT31;62850;42.428;25.618;2023-11-21T08:08:00;10.17;59.64
74416;SHT31;62850;42.428;25.618;2023-11-21T08:10:26;10.26;59.48
74416;SHT31;62850;42.428;25.618;2023-11-21T08:12:51;10.37;59.32
74416;SHT31;62850;42.428;25.618;2023-11-21T08:15:19;10.41;59.29
74416;SHT31;62850;42.428;25.618;2023-11-21T08:17:46;10.47;59.23
74416;SHT31;62850;42.428;25.618;2023-11-21T08:20:12;10.58;59.42
74416;SHT31;62850;42.428;25.618;2023-11-21T08:22:37;10.65;59.85
74416;SHT31;62850;42.428;25.618;2023-11-21T08:25:06;10.72;59.32
74416;SHT31;62850;42.428;25.618;2023-11-21T08:27:33;10.74;59.13
74416;SHT31;62850;42.428;25.618;2023-11-21T08:30:03;10.84;59.01
74416;SHT31;62850;42.428;25.618;2023-11-21T08:32:29;10.92;58.79
74416;SHT31;62850;42.428;25.618;2023-11-21T08:34:57;11.02;58.68
74416;SHT31;62850;42.428;25.618;2023-11-21T08:37:23;11.08;58.34
74416;SHT31;62850;42.428;25.618;2023-11-21T08:39:49;11.16;57.56
74416;SHT31;62850;42.428;25.618;2023-11-21T08:42:14;11.26;57.42
74416;SHT31;62850;42.428;25.618;2023-11-21T08:44:40;11.30;57.36
74416;SHT31;62850;42.428;25.618;2023-11-21T08:47:06;11.42;57.46
74416;SHT31;62850;42.428;25.618;2023-11-21T08:49:32;11.49;56.69
74416;SHT31;62850;42.428;25.618;2023-11-21T08:51:58;11.57;56.34
74416;SHT31;62850;42.428;25.618;2023-11-21T08:54:25;11.62;56.46
74416;SHT31;62850;42.428;25.618;2023-11-21T08:56:52;11.60;56.33
74416;SHT31;62850;42.428;25.618;2023-11-21T08:59:18;11.73;55.96
74416;SHT31;62850;42.428;25.618;2023-11-21T09:01:45;11.80;55.74
74416;SHT31;62850;42.428;25.618;2023-11-21T09:04:11;11.86;55.05
74416;SHT31;62850;42.428;25.618;2023-11-21T09:06:38;11.91;54.53
74416;SHT31;62850;42.428;25.618;2023-11-21T09:09:03;11.94;54.84
74416;SHT31;62850;42.428;25.618;2023-11-21T09:11:34;12.02;54.54
74416;SHT31;62850;42.428;25.618;2023-11-21T09:14:01;12.07;54.94
74416;SHT31;62850;42.428;25.618;2023-11-21T09:16:26;12.07;54.49
74416;SHT31;62850;42.428;25.618;2023-11-21T09:18:52;11.99;54.75
74416;SHT31;62850;42.428;25.618;2023-11-21T09:21:17;12.07;55.12
74416;SHT31;62850;42.428;25.618;2023-11-21T09:23:46;12.08;54.91
74416;SHT31;62850;42.428;25.618;2023-11-21T09:26:12;12.15;54.73
74416;SHT31;62850;42.428;25.618;2023-11-21T09:28:37;12.20;54.88
74416;SHT31;62850;42.428;25.618;2023-11-21T09:31:04;12.25;55.35
74416;SHT31;62850;42.428;25.618;2023-11-21T09:33:30;12.34;54.58
74416;SHT31;62850;42.428;25.618;2023-11-21T09:35:56;12.39;54.65
74416;SHT31;62850;42.428;25.618;2023-11-21T09:38:22;12.38;55.06
74416;SHT31;62850;42.428;25.618;2023-11-21T09:40:48;12.44;55.00
74416;SHT31;62850;42.428;25.618;2023-11-21T09:43:18;12.49;54.93
74416;SHT31;62850;42.428;25.618;2023-11-21T09:45:56;12.52;54.47
74416;SHT31;62850;42.428;25.618;2023-11-21T09:48:26;12.57;54.21
74416;SHT31;62850;42.428;25.618;2023-11-21T09:50:53;12.60;54.56
74416;SHT31;62850;42.428;25.618;2023-11-21T09:53:20;12.67;54.52
74416;SHT31;62850;42.428;25.618;2023-11-21T09:55:48;12.75;54.59
74416;SHT31;62850;42.428;25.618;2023-11-21T09:58:16;12.73;54.78
74416;SHT31;62850;42.428;25.618;2023-11-21T10:00:47;12.76;55.08
74416;SHT31;62850;42.428;25.618;2023-11-21T10:03:13;12.82;55.77
74416;SHT31;62850;42.428;25.618;2023-11-21T10:05:40;12.89;56.22
74416;SHT31;62850;42.428;25.618;2023-11-21T10:08:08;12.99;56.43
74416;SHT31;62850;42.428;25.618;2023-11-21T10:10:35;13.06;56.74
74416;SHT31;62850;42.428;25.618;2023-11-21T10:13:03;13.06;57.31
74416;SHT31;62850;42.428;25.618;2023-11-21T10:15:33;13.11;57.62
74416;SHT31;62850;42.428;25.618;2023-11-21T10:18:04;13.18;57.72
74416;SHT31;62850;42.428;25.618;2023-11-21T10:20:32;13.20;57.25
74416;SHT31;62850;42.428;25.618;2023-11-21T10:22:59;13.27;56.61
74416;SHT31;62850;42.428;25.618;2023-11-21T10:25:26;13.27;56.99
74416;SHT31;62850;42.428;25.618;2023-11-21T10:27:57;13.23;57.14
74416;SHT31;62850;42.428;25.618;2023-11-21T10:30:27;13.23;57.29
74416;SHT31;62850;42.428;25.618;2023-11-21T10:32:59;13.28;57.02
74416;SHT31;62850;42.428;25.618;2023-11-21T10:35:38;13.28;57.03
74416;SHT31;62850;42.428;25.618;2023-11-21T10:38:04;13.37;57.15
74416;SHT31;62850;42.428;25.618;2023-11-21T10:40:29;13.37;57.16
74416;SHT31;62850;42.428;25.618;2023-11-21T10:43:06;13.40;57.01
74416;SHT31;62850;42.428;25.618;2023-11-21T10:45:34;13.43;56.80
74416;SHT31;62850;42.428;25.618;2023-11-21T10:48:00;13.50;56.57
74416;SHT31;62850;42.428;25.618;2023-11-21T10:50:26;13.45;56.82
74416;SHT31;62850;42.428;25.618;2023-11-21T10:52:51;13.44;56.68
74416;SHT31;62850;42.428;25.618;2023-11-21T10:55:20;13.50;56.50
74416;SHT31;62850;42.428;25.618;2023-11-21T10:57:52;13.55;56.82
74416;SHT31;62850;42.428;25.618;2023-11-21T11:00:19;13.55;57.11
74416;SHT31;62850;42.428;25.618;2023-11-21T11:02:49;13.57;57.31
74416;SHT31;62850;42.428;25.618;2023-11-21T11:05:19;13.61;57.35
74416;SHT31;62850;42.428;25.618;2023-11-21T11:07:48;13.66;57.39
74416;SHT31;62850;42.428;25.618;2023-11-21T11:10:19;13.75;56.85
74416;SHT31;62850;42.428;25.618;2023-11-21T11:12:48;13.69;56.81
74416;SHT31;62850;42.428;25.618;2023-11-21T11:15:16;13.78;56.74
74416;SHT31;62850;42.428;25.618;2023-11-21T11:17:42;13.85;56.85
74416;SHT31;62850;42.428;25.618;2023-11-21T11:20:12;13.89;56.63
74416;SHT31;62850;42.428;25.618;2023-11-21T11:22:46;13.95;56.50
74416;SHT31;62850;42.428;25.618;2023-11-21T11:25:18;13.89;56.78
74416;SHT31;62850;42.428;25.618;2023-11-21T11:33:39;14.02;56.17
74416;SHT31;62850;42.428;25.618;2023-11-21T11:36:16;14.08;56.20
74416;SHT31;62850;42.428;25.618;2023-11-21T11:38:45;14.09;56.26
74416;SHT31;62850;42.428;25.618;2023-11-21T11:41:11;14.09;56.54
74416;SHT31;62850;42.428;25.618;2023-11-21T11:43:37;14.12;56.44
74416;SHT31;62850;42.428;25.618;2023-11-21T11:46:10;14.17;56.73
74416;SHT31;62850;42.428;25.618;2023-11-21T11:48:39;14.16;56.57
74416;SHT31;62850;42.428;25.618;2023-11-21T11:51:13;14.14;56.99
74416;SHT31;62850;42.428;25.618;2023-11-21T11:53:47;14.14;57.42
74416;SHT31;62850;42.428;25.618;2023-11-21T11:56:30;14.17;57.42
74416;SHT31;62850;42.428;25.618;2023-11-21T11:59:03;14.22;57.75
74416;SHT31;62850;42.428;25.618;2023-11-21T12:01:30;14.23;57.61
74416;SHT31;62850;42.428;25.618;2023-11-21T12:06:43;14.32;57.99
74416;SHT31;62850;42.428;25.618;2023-11-21T12:09:22;14.32;58.08
74416;SHT31;62850;42.428;25.618;2023-11-21T12:11:51;14.30;57.69
74416;SHT31;62850;42.428;25.618;2023-11-21T12:14:17;14.32;57.51
74416;SHT31;62850;42.428;25.618;2023-11-21T12:16:43;14.34;57.96
74416;SHT31;62850;42.428;25.618;2023-11-21T12:19:12;14.38;58.02
74416;SHT31;62850;42.428;25.618;2023-11-21T12:21:38;14.38;58.08
74416;SHT31;62850;42.428;25.618;2023-11-21T12:24:06;14.38;58.24
74416;SHT31;62850;42.428;25.618;2023-11-21T12:26:34;14.33;58.64
74416;SHT31;62850;42.428;25.618;2023-11-21T12:29:01;14.37;58.45
74416;SHT31;62850;42.428;25.618;2023-11-21T12:31:28;14.43;58.24
74416;SHT31;62850;42.428;25.618;2023-11-21T12:33:54;14.45;58.34
74416;SHT31;62850;42.428;25.618;2023-11-21T12:36:21;14.51;58.41
74416;SHT31;62850;42.428;25.618;2023-11-21T12:38:47;14.53;58.39
74416;SHT31;62850;42.428;25.618;2023-11-21T12:41:13;14.45;58.53
74416;SHT31;62850;42.428;25.618;2023-11-21T12:43:38;14.48;58.68
74416;SHT31;62850;42.428;25.618;2023-11-21T12:46:11;14.47;58.60
74416;SHT31;62850;42.428;25.618;2023-11-21T12:48:43;14.47;58.76
74416;SHT31;62850;42.428;25.618;2023-11-21T12:51:10;14.45;58.81
74416;SHT31;62850;42.428;25.618;2023-11-21T12:53:37;14.45;59.06
74416;SHT31;62850;42.428;25.618;2023-11-21T12:56:09;14.51;59.01
74416;SHT31;62850;42.428;25.618;2023-11-21T12:58:36;14.54;59.05
74416;SHT31;62850;42.428;25.618;2023-11-21T13:01:02;14.56;58.74
74416;SHT31;62850;42.428;25.618;2023-11-21T13:03:29;14.64;58.65
74416;SHT31;62850;42.428;25.618;2023-11-21T13:05:55;14.57;58.95
74416;SHT31;62850;42.428;25.618;2023-11-21T13:08:24;14.64;58.97
74416;SHT31;62850;42.428;25.618;2023-11-21T13:10:52;14.61;58.77
74416;SHT31;62850;42.428;25.618;2023-11-21T13:13:19;14.65;58.89
74416;SHT31;62850;42.428;25.618;2023-11-21T13:15:49;14.68;58.95
74416;SHT31;62850;42.428;25.618;2023-11-21T13:18:15;14.65;58.89
74416;SHT31;62850;42.428;25.618;2023-11-21T13:20:42;14.63;59.11
74416;SHT31;62850;42.428;25.618;2023-11-21T13:23:09;14.63;59.29
74416;SHT31;62850;42.428;25.618;2023-11-21T13:25:37;14.61;59.44
74416;SHT31;62850;42.428;25.618;2023-11-21T13:28:04;14.57;59.56
74416;SHT31;62850;42.428;25.618;2023-11-21T13:30:30;14.57;59.58
74416;SHT31;62850;42.428;25.618;2023-11-21T13:33:05;14.54;59.70
74416;SHT31;62850;42.428;25.618;2023-11-21T13:35:37;14.54;59.39
74416;SHT31;62850;42.428;25.618;2023-11-21T13:40:33;14.59;59.68
74416;SHT31;62850;42.428;25.618;2023-11-21T13:43:12;14.53;59.90
74416;SHT31;62850;42.428;25.618;2023-11-21T13:45:40;14.50;59.97
74416;SHT31;62850;42.428;25.618;2023-11-21T13:48:06;14.48;59.95
74416;SHT31;62850;42.428;25.618;2023-11-21T13:50:41;14.53;59.97
74416;SHT31;62850;42.428;25.618;2023-11-21T13:53:20;14.53;60.00
74416;SHT31;62850;42.428;25.618;2023-11-21T13:55:52;14.51;59.97
74416;SHT31;62850;42.428;25.618;2023-11-21T13:58:23;14.40;60.31
74416;SHT31;62850;42.428;25.618;2023-11-21T14:00:58;14.37;60.56
74416;SHT31;62850;42.428;25.618;2023-11-21T14:03:23;14.44;60.39
74416;SHT31;62850;42.428;25.618;2023-11-21T14:05:58;14.45;60.37
74416;SHT31;62850;42.428;25.618;2023-11-21T14:08:26;14.36;60.79
74416;SHT31;62850;42.428;25.618;2023-11-21T14:10:57;14.36;60.80
74416;SHT31;62850;42.428;25.618;2023-11-21T14:13:26;14.34;60.60
74416;SHT31;62850;42.428;25.618;2023-11-21T14:15:52;14.37;60.71
74416;SHT31;62850;42.428;25.618;2023-11-21T14:18:24;14.37;60.72
74416;SHT31;62850;42.428;25.618;2023-11-21T14:21:01;14.33;60.89
74416;SHT31;62850;42.428;25.618;2023-11-21T14:23:26;14.33;61.06
74416;SHT31;62850;42.428;25.618;2023-11-21T14:25:53;14.36;61.02
74416;SHT31;62850;42.428;25.618;2023-11-21T14:28:19;14.30;61.01
74416;SHT31;62850;42.428;25.618;2023-11-21T14:30:46;14.32;61.20
74416;SHT31;62850;42.428;25.618;2023-11-21T14:33:12;14.26;61.21
74416;SHT31;62850;42.428;25.618;2023-11-21T14:35:41;14.30;61.29
74416;SHT31;62850;42.428;25.618;2023-11-21T14:38:06;14.26;61.41
74416;SHT31;62850;42.428;25.618;2023-11-21T14:40:32;14.23;61.41
74416;SHT31;62850;42.428;25.618;2023-11-21T14:43:01;14.14;61.77
74416;SHT31;62850;42.428;25.618;2023-11-21T14:45:30;14.16;61.85
74416;SHT31;62850;42.428;25.618;2023-11-21T14:47:56;14.16;61.74
74416;SHT31;62850;42.428;25.618;2023-11-21T14:50:32;14.08;62.28
74416;SHT31;62850;42.428;25.618;2023-11-21T14:53:09;14.03;62.66
74416;SHT31;62850;42.428;25.618;2023-11-21T14:55:37;13.98;63.20
74416;SHT31;62850;42.428;25.618;2023-11-21T14:58:15;13.96;63.38
74416;SHT31;62850;42.428;25.618;2023-11-21T15:00:45;13.99;63.66
74416;SHT31;62850;42.428;25.618;2023-11-21T15:03:12;13.93;63.92
74416;SHT31;62850;42.428;25.618;2023-11-21T15:06:02;13.83;64.60
74416;SHT31;62850;42.428;25.618;2023-11-21T15:08:57;13.82;65.32
74416;SHT31;62850;42.428;25.618;2023-11-21T15:11:31;13.85;65.35
74416;SHT31;62850;42.428;25.618;2023-11-21T15:13:58;13.82;65.40
74416;SHT31;62850;42.428;25.618;2023-11-21T15:16:24;13.83;65.29
74416;SHT31;62850;42.428;25.618;2023-11-21T15:18:54;13.87;65.39
74416;SHT31;62850;42.428;25.618;2023-11-21T15:21:20;13.87;65.04
74416;SHT31;62850;42.428;25.618;2023-11-21T15:23:47;13.89;64.88
74416;SHT31;62850;42.428;25.618;2023-11-21T15:26:13;13.92;65.01
74416;SHT31;62850;42.428;25.618;2023-11-21T15:28:39;13.87;65.09
74416;SHT31;62850;42.428;25.618;2023-11-21T15:31:04;13.79;65.54
74416;SHT31;62850;42.428;25.618;2023-11-21T15:33:33;13.78;66.22
74416;SHT31;62850;42.428;25.618;2023-11-21T15:36:01;13.73;66.34